Time;durP1;ratioP1;P1;durP2;ratioP2;P2;SDS_P1;SDS_P2;PMS_P1;PMS_P2;Temp;Humidity;BMP_temperature;BMP_pressure;BME280_temperature;BME280_humidity;BME280_pressure;Samples;Min_cycle;Max_cycle;Signal;HPM_P1;HPM_P2
2023/03/06 00:01:47;;;;;;;2.70;1.67;;;1.50;99.90;;;;;;4965024;28;20049;-80
2023/03/06 00:04:14;;;;;;;8.27;1.95;;;1.50;99.90;;;;;;4983911;28;20058;-81
2023/03/06 00:06:39;;;;;;;3.47;2.08;;;1.50;99.90;;;;;;4982285;28;20046;-81
2023/03/06 00:09:05;;;;;;;5.45;2.10;;;1.40;99.90;;;;;;4985207;28;20058;-81
2023/03/06 00:11:31;;;;;;;5.95;1.92;;;1.40;99.90;;;;;;4978416;28;20228;-81
2023/03/06 00:13:56;;;;;;;3.67;2.00;;;1.50;99.90;;;;;;4985212;28;20074;-80
2023/03/06 00:16:22;;;;;;;5.38;1.75;;;1.50;99.90;;;;;;4988076;28;20035;-81
2023/03/06 00:18:47;;;;;;;5.13;1.88;;;1.50;99.90;;;;;;4989760;28;20041;-81
2023/03/06 00:21:13;;;;;;;5.00;2.03;;;1.50;99.90;;;;;;4990288;28;20464;-81
2023/03/06 00:23:40;;;;;;;5.15;1.92;;;1.50;99.90;;;;;;4971796;28;20148;-81
2023/03/06 00:26:07;;;;;;;2.97;1.88;;;1.50;99.90;;;;;;4989170;28;20050;-81
2023/03/06 00:28:33;;;;;;;6.35;2.25;;;1.60;99.90;;;;;;4986640;28;20050;-81
2023/03/06 00:30:59;;;;;;;5.50;1.80;;;1.60;99.90;;;;;;4986361;28;20043;-81
2023/03/06 00:33:25;;;;;;;5.38;2.30;;;1.60;99.90;;;;;;4988619;28;20053;-81
2023/03/06 00:35:51;;;;;;;3.67;2.05;;;1.70;99.90;;;;;;4971073;28;20057;-81
2023/03/06 00:38:16;;;;;;;3.95;2.28;;;1.70;99.90;;;;;;4987535;28;20046;-81
2023/03/06 00:40:42;;;;;;;4.25;1.90;;;1.70;99.90;;;;;;4989895;28;20112;-81
2023/03/06 00:43:08;;;;;;;4.93;2.03;;;1.70;99.90;;;;;;4979288;28;20057;-81
2023/03/06 00:45:36;;;;;;;5.03;2.20;;;1.70;99.90;;;;;;4988827;28;20524;-81
2023/03/06 00:48:01;;;;;;;5.05;3.00;;;1.90;99.90;;;;;;4988842;28;20109;-81
2023/03/06 00:50:27;;;;;;;4.03;1.92;;;1.60;99.90;;;;;;4988308;28;20436;-81
2023/03/06 00:53:02;;;;;;;7.28;2.13;;;1.70;99.90;;;;;;4986620;28;20378;-81
2023/03/06 00:55:29;;;;;;;5.78;1.92;;;1.70;99.90;;;;;;4984138;28;20070;-81
2023/03/06 00:57:58;;;;;;;3.78;2.00;;;1.90;99.90;;;;;;4985185;28;20400;-81
2023/03/06 01:00:29;;;;;;;4.57;2.15;;;1.70;99.90;;;;;;4985978;28;20042;-81
2023/03/06 01:03:01;;;;;;;3.97;2.20;;;1.70;99.90;;;;;;4988476;28;20508;-80
2023/03/06 01:05:26;;;;;;;2.97;1.80;;;2.30;99.90;;;;;;4986250;28;20480;-80
2023/03/06 01:07:52;;;;;;;5.00;1.98;;;1.70;99.90;;;;;;4986762;28;20038;-80
2023/03/06 01:10:18;;;;;;;5.10;2.35;;;1.70;99.90;;;;;;4988750;28;20053;-80
2023/03/06 01:12:49;;;;;;;6.03;2.40;;;1.70;99.90;;;;;;4988275;28;20512;-80
2023/03/06 01:15:18;;;;;;;4.88;1.85;;;1.80;99.90;;;;;;4986828;28;20397;-80
2023/03/06 01:17:53;;;;;;;5.13;2.28;;;1.80;99.90;;;;;;4987917;28;20054;-80
2023/03/06 01:20:20;;;;;;;3.90;1.95;;;1.80;99.90;;;;;;4989826;28;20228;-80
2023/03/06 01:22:49;;;;;;;5.03;2.53;;;1.80;99.90;;;;;;4988258;28;20046;-80
2023/03/06 01:25:15;;;;;;;4.15;1.95;;;1.80;99.90;;;;;;4989357;28;20129;-80
2023/03/06 01:27:41;;;;;;;5.00;2.22;;;1.80;99.90;;;;;;4987230;28;20133;-80
2023/03/06 01:30:07;;;;;;;4.40;2.10;;;1.80;99.90;;;;;;4989997;28;20046;-80
2023/03/06 01:32:33;;;;;;;6.20;2.00;;;1.90;99.90;;;;;;4983690;28;20046;-80
2023/03/06 01:34:58;;;;;;;3.45;2.10;;;1.90;99.90;;;;;;4984955;28;20053;-79
2023/03/06 01:37:24;;;;;;;5.35;2.88;;;1.90;99.90;;;;;;4986055;28;20489;-81
2023/03/06 01:39:50;;;;;;;4.57;2.15;;;1.90;99.90;;;;;;4971336;28;20089;-80
2023/03/06 01:42:15;;;;;;;3.20;2.20;;;1.90;99.90;;;;;;4970369;28;20077;-81
2023/03/06 01:45:11;;;;;;;5.55;2.28;;;1.90;99.90;;;;;;4987271;28;20447;-80
2023/03/06 01:47:36;;;;;;;3.67;1.92;;;2.00;99.90;;;;;;4984369;28;20046;-80
2023/03/06 01:50:05;;;;;;;2.95;2.05;;;2.00;99.90;;;;;;4985605;28;20045;-80
2023/03/06 01:52:45;;;;;;;6.03;2.30;;;2.00;99.90;;;;;;4987385;28;20046;-81
2023/03/06 01:55:16;;;;;;;3.47;1.83;;;2.00;99.90;;;;;;4988968;28;20038;-80
2023/03/06 01:57:45;;;;;;;4.05;1.83;;;2.00;99.90;;;;;;4986648;28;20053;-80
2023/03/06 02:00:15;;;;;;;4.07;1.85;;;2.00;99.90;;;;;;4986895;28;20052;-80
2023/03/06 02:02:46;;;;;;;5.55;2.25;;;2.00;99.90;;;;;;4981900;28;20488;-81
2023/03/06 02:05:12;;;;;;;2.90;2.25;;;2.00;99.90;;;;;;4984405;28;20422;-80
2023/03/06 02:07:40;;;;;;;2.92;1.90;;;2.00;99.90;;;;;;4984798;28;20038;-80
2023/03/06 02:10:06;;;;;;;3.08;1.50;;;2.00;99.90;;;;;;4985994;28;20038;-80
2023/03/06 02:12:32;;;;;;;2.78;1.95;;;2.10;99.90;;;;;;4968390;28;20458;-80
2023/03/06 02:14:58;;;;;;;5.53;2.30;;;2.10;99.90;;;;;;4971924;28;20564;-81
2023/03/06 02:17:24;;;;;;;3.80;2.08;;;2.10;99.90;;;;;;4967662;28;20137;-81
2023/03/06 02:20:17;;;;;;;3.72;2.30;;;2.20;99.90;;;;;;4988034;28;20392;-80
2023/03/06 02:22:49;;;;;;;8.05;2.22;;;2.10;99.90;;;;;;4985174;28;20042;-81
2023/03/06 02:25:30;;;;;;;3.88;2.22;;;2.20;99.90;;;;;;4988732;28;20050;-80
2023/03/06 02:27:56;;;;;;;3.40;2.05;;;2.20;99.90;;;;;;4981369;28;20046;-81
2023/03/06 02:30:25;;;;;;;3.13;1.83;;;2.20;99.90;;;;;;4970371;28;20046;-81
2023/03/06 02:32:50;;;;;;;3.85;1.52;;;2.20;99.90;;;;;;4986687;28;20104;-80
2023/03/06 02:35:25;;;;;;;7.07;2.38;;;2.20;99.90;;;;;;4985783;28;20034;-81
2023/03/06 02:37:51;;;;;;;6.03;2.50;;;2.30;99.90;;;;;;4987135;28;20085;-81
2023/03/06 02:40:19;;;;;;;5.50;2.30;;;2.30;99.90;;;;;;4966887;28;20050;-80
2023/03/06 02:42:46;;;;;;;6.40;2.10;;;2.30;99.90;;;;;;4969146;28;20046;-80
2023/03/06 02:45:16;;;;;;;5.93;1.95;;;2.30;99.90;;;;;;4969289;28;20046;-81
2023/03/06 02:47:42;;;;;;;3.22;2.17;;;2.30;99.90;;;;;;4986195;28;20488;-81
2023/03/06 02:50:09;;;;;;;5.40;3.13;;;2.30;99.90;;;;;;4987018;28;20491;-81
2023/03/06 02:52:34;;;;;;;3.20;2.10;;;2.30;99.90;;;;;;4985654;28;20133;-81
2023/03/06 02:55:00;;;;;;;3.35;1.80;;;2.30;99.90;;;;;;4984571;28;20129;-82
2023/03/06 02:57:25;;;;;;;4.90;1.85;;;2.30;99.90;;;;;;4987241;28;20049;-82
2023/03/06 02:59:51;;;;;;;4.22;2.00;;;2.30;99.90;;;;;;4987739;28;20053;-82
2023/03/06 03:02:16;;;;;;;3.55;1.83;;;2.30;99.90;;;;;;4986246;28;20261;-82
2023/03/06 03:04:42;;;;;;;4.50;2.47;;;2.30;99.90;;;;;;4986176;28;20042;-82
2023/03/06 03:07:08;;;;;;;3.15;2.42;;;2.30;99.90;;;;;;4987720;28;20061;-83
2023/03/06 03:09:36;;;;;;;4.93;2.35;;;2.30;99.90;;;;;;4986485;28;20050;-82
2023/03/06 03:12:03;;;;;;;2.78;2.17;;;2.30;99.90;;;;;;4979585;28;20102;-83
2023/03/06 03:14:29;;;;;;;3.83;2.15;;;2.30;99.90;;;;;;4984568;28;20052;-83
2023/03/06 03:16:55;;;;;;;3.97;2.50;;;2.80;99.90;;;;;;4987889;28;20042;-83
2023/03/06 03:19:20;;;;;;;4.35;2.42;;;2.30;99.90;;;;;;4986934;28;20042;-83
2023/03/06 03:21:47;;;;;;;4.00;2.35;;;2.30;99.90;;;;;;4985942;28;20113;-83
2023/03/06 03:24:15;;;;;;;7.95;2.70;;;2.30;99.90;;;;;;4985728;28;20050;-83
2023/03/06 03:26:40;;;;;;;5.38;3.30;;;2.30;99.90;;;;;;4984288;28;20543;-83
2023/03/06 03:29:06;;;;;;;5.88;3.47;;;2.30;99.90;;;;;;4986646;28;20061;-82
2023/03/06 03:31:32;;;;;;;5.47;2.97;;;2.30;99.90;;;;;;4985530;28;20460;-82
2023/03/06 03:33:58;;;;;;;4.30;3.20;;;2.30;99.90;;;;;;4983152;28;20043;-82
2023/03/06 03:36:26;;;;;;;5.80;2.55;;;2.40;99.90;;;;;;4983365;28;20481;-81
2023/03/06 03:38:52;;;;;;;4.13;3.00;;;2.40;99.90;;;;;;4986105;28;20090;-83
2023/03/06 03:41:18;;;;;;;6.18;2.47;;;2.40;99.90;;;;;;4987482;28;20077;-82
2023/03/06 03:43:43;;;;;;;5.35;2.17;;;2.40;99.90;;;;;;4983591;28;20058;-83
2023/03/06 03:46:09;;;;;;;3.28;2.00;;;2.40;99.90;;;;;;4987441;28;20047;-82
2023/03/06 03:48:34;;;;;;;3.97;1.95;;;2.50;99.90;;;;;;4987057;28;20121;-82
2023/03/06 03:51:05;;;;;;;2.67;2.05;;;2.50;99.90;;;;;;4987767;28;20485;-82
2023/03/06 03:53:31;;;;;;;2.53;1.77;;;2.50;99.90;;;;;;4988679;28;20361;-82
2023/03/06 03:55:56;;;;;;;2.05;1.65;;;2.60;99.90;;;;;;4991305;28;20038;-82
2023/03/06 03:58:22;;;;;;;2.10;1.58;;;2.60;99.90;;;;;;4990389;28;20081;-82
2023/03/06 04:00:47;;;;;;;2.03;1.58;;;2.60;99.90;;;;;;4990014;28;20031;-81
2023/03/06 04:03:13;;;;;;;4.45;1.90;;;2.70;99.90;;;;;;4990142;28;20045;-82
2023/03/06 04:05:40;;;;;;;2.03;1.40;;;2.60;99.90;;;;;;4989560;28;20049;-82
2023/03/06 04:08:05;;;;;;;1.83;1.55;;;2.70;99.90;;;;;;4990061;28;20456;-82
2023/03/06 04:10:31;;;;;;;1.77;1.67;;;2.60;99.90;;;;;;4983003;28;20111;-82
2023/03/06 04:12:57;;;;;;;1.50;1.40;;;2.70;99.90;;;;;;4986776;28;20043;-82
2023/03/06 04:15:23;;;;;;;2.38;1.40;;;2.70;99.90;;;;;;4989829;28;20038;-82
2023/03/06 04:17:49;;;;;;;1.65;1.27;;;2.70;99.90;;;;;;4989400;28;20081;-82
2023/03/06 04:20:15;;;;;;;2.28;1.50;;;2.70;99.90;;;;;;4990492;28;20092;-82
2023/03/06 04:22:40;;;;;;;3.00;2.15;;;2.70;99.90;;;;;;4989714;28;20363;-82
2023/03/06 04:25:06;;;;;;;4.05;2.38;;;2.60;99.90;;;;;;4988980;28;20113;-82
2023/03/06 04:27:32;;;;;;;3.05;1.63;;;2.70;99.90;;;;;;4990438;28;20061;-82
2023/03/06 04:29:57;;;;;;;2.33;1.73;;;2.70;99.90;;;;;;4984457;28;20070;-82
2023/03/06 04:32:23;;;;;;;5.78;2.17;;;2.60;99.90;;;;;;4971272;28;20397;-82
2023/03/06 04:34:49;;;;;;;1.52;1.42;;;2.60;99.90;;;;;;4990035;28;20046;-82
2023/03/06 04:37:24;;;;;;;2.08;1.92;;;2.50;99.90;;;;;;4989830;28;20129;-82
2023/03/06 04:39:50;;;;;;;2.03;1.73;;;2.40;99.90;;;;;;4973470;28;20058;-82
2023/03/06 04:42:16;;;;;;;2.15;1.50;;;2.30;99.90;;;;;;4988272;28;20046;-82
2023/03/06 04:44:41;;;;;;;1.45;1.35;;;2.20;99.90;;;;;;4970775;28;20115;-81
2023/03/06 04:47:07;;;;;;;1.38;1.27;;;2.20;99.90;;;;;;4989670;28;20779;-81
2023/03/06 04:49:33;;;;;;;1.60;1.50;;;2.10;99.90;;;;;;4990802;28;20073;-82
2023/03/06 04:51:58;;;;;;;1.35;1.25;;;2.10;99.90;;;;;;4988849;28;20046;-81
2023/03/06 04:54:24;;;;;;;1.60;1.20;;;2.00;99.90;;;;;;4988283;28;20038;-82
2023/03/06 04:56:50;;;;;;;1.58;1.40;;;1.90;99.90;;;;;;4988287;28;20054;-82
2023/03/06 04:59:16;;;;;;;1.50;1.40;;;1.90;99.90;;;;;;4987194;28;20077;-82
2023/03/06 05:01:42;;;;;;;1.55;1.45;;;1.80;99.90;;;;;;4985555;28;20077;-82
2023/03/06 05:04:13;;;;;;;1.45;1.30;;;1.80;99.90;;;;;;4986045;28;20042;-82
2023/03/06 05:06:42;;;;;;;1.58;1.25;;;1.80;99.90;;;;;;4984650;28;20241;-82
2023/03/06 05:09:07;;;;;;;1.95;1.40;;;1.80;99.90;;;;;;4987162;28;20204;-83
2023/03/06 05:11:33;;;;;;;1.63;1.52;;;1.70;99.90;;;;;;4982341;28;20039;-82
2023/03/06 05:13:58;;;;;;;1.30;1.20;;;1.70;99.90;;;;;;4987419;28;20101;-82
2023/03/06 05:16:24;;;;;;;1.42;1.33;;;1.70;99.90;;;;;;4985555;28;20049;-82
2023/03/06 05:18:49;;;;;;;2.08;1.20;;;1.70;99.90;;;;;;4984956;28;20046;-82
2023/03/06 05:21:15;;;;;;;1.42;1.33;;;1.70;99.90;;;;;;4969936;28;20134;-82
2023/03/06 05:23:46;;;;;;;2.10;1.25;;;1.70;99.90;;;;;;4983302;28;20409;-82
2023/03/06 05:26:13;;;;;;;1.77;1.50;;;1.70;99.90;;;;;;4988260;28;20054;-82
2023/03/06 05:28:48;;;;;;;1.42;1.33;;;1.70;99.90;;;;;;4987615;28;20061;-82
2023/03/06 05:31:14;;;;;;;2.67;1.40;;;1.60;99.90;;;;;;4986791;28;20038;-82
2023/03/06 05:33:39;;;;;;;1.73;1.60;;;1.60;99.90;;;;;;4980726;28;20120;-82
2023/03/06 05:36:07;;;;;;;1.55;1.40;;;1.50;99.90;;;;;;4988095;28;20125;-82
2023/03/06 05:38:35;;;;;;;1.60;1.42;;;1.50;99.90;;;;;;4987398;28;20081;-82
2023/03/06 05:41:01;;;;;;;2.35;1.10;;;1.50;99.90;;;;;;4979148;28;20038;-82
2023/03/06 05:43:27;;;;;;;1.23;1.10;;;1.50;99.90;;;;;;4985671;28;20488;-81
2023/03/06 05:46:00;;;;;;;1.48;1.30;;;1.40;99.90;;;;;;4986850;28;20074;-81
2023/03/06 05:48:26;;;;;;;1.48;1.30;;;1.40;99.90;;;;;;4985815;28;20050;-82
2023/03/06 05:50:59;;;;;;;1.42;1.10;;;1.30;99.90;;;;;;4989490;28;20054;-81
2023/03/06 05:53:25;;;;;;;1.42;1.25;;;1.30;99.90;;;;;;4983415;28;20136;-81
2023/03/06 05:56:09;;;;;;;1.17;1.08;;;1.20;99.90;;;;;;4989560;28;20050;-81
2023/03/06 05:58:36;;;;;;;1.73;1.20;;;1.10;99.90;;;;;;4969372;28;20401;-81
2023/03/06 06:01:18;;;;;;;1.05;0.98;;;1.10;99.90;;;;;;4986013;28;20038;-81
2023/03/06 06:03:44;;;;;;;1.50;1.40;;;1.10;99.90;;;;;;4979902;28;20355;-81
2023/03/06 06:06:12;;;;;;;1.13;0.98;;;1.10;99.90;;;;;;4985587;28;20091;-81
2023/03/06 06:08:38;;;;;;;1.80;1.20;;;1.10;99.90;;;;;;4970566;28;20382;-81
2023/03/06 06:11:04;;;;;;;1.40;1.10;;;1.10;99.90;;;;;;4987260;28;20046;-80
2023/03/06 06:13:31;;;;;;;2.08;1.33;;;1.00;99.90;;;;;;4994273;28;20051;-81
2023/03/06 06:15:56;;;;;;;1.88;1.38;;;1.00;99.90;;;;;;4988035;28;20058;-81
2023/03/06 06:18:22;;;;;;;2.97;1.50;;;1.00;99.90;;;;;;4981676;28;20405;-81
2023/03/06 06:20:47;;;;;;;1.48;1.38;;;0.90;99.90;;;;;;4985459;28;20129;-81
2023/03/06 06:23:13;;;;;;;2.97;1.52;;;0.90;99.90;;;;;;4986967;28;20038;-81
2023/03/06 06:25:39;;;;;;;1.77;1.48;;;0.90;99.90;;;;;;4969502;28;20085;-80
2023/03/06 06:28:05;;;;;;;1.70;1.35;;;0.80;99.90;;;;;;4966903;28;20092;-80
2023/03/06 06:30:33;;;;;;;4.20;1.55;;;0.80;99.90;;;;;;4982535;28;20058;-80
2023/03/06 06:32:59;;;;;;;2.40;1.52;;;0.80;99.90;;;;;;4985833;28;20046;-81
2023/03/06 06:35:25;;;;;;;3.42;1.77;;;0.70;99.90;;;;;;4988462;28;20042;-81
2023/03/06 06:37:51;;;;;;;2.22;1.60;;;0.70;99.90;;;;;;4986897;28;20516;-82
2023/03/06 06:40:17;;;;;;;2.15;1.88;;;0.70;99.90;;;;;;4986132;28;20085;-82
2023/03/06 06:42:45;;;;;;;2.30;1.35;;;0.70;99.90;;;;;;4986005;28;20057;-82
2023/03/06 06:45:11;;;;;;;2.92;1.73;;;0.80;99.90;;;;;;4984404;28;20042;-82
2023/03/06 06:47:39;;;;;;;2.67;1.75;;;0.80;99.90;;;;;;4988475;28;20845;-82
2023/03/06 06:50:07;;;;;;;3.80;2.70;;;0.90;99.90;;;;;;4987327;28;20421;-81
2023/03/06 06:52:33;;;;;;;4.53;2.88;;;0.90;99.90;;;;;;4986584;28;20100;-82
2023/03/06 06:54:59;;;;;;;3.55;2.90;;;0.90;99.90;;;;;;4985079;28;20042;-82
2023/03/06 06:57:25;;;;;;;4.20;2.30;;;1.00;99.90;;;;;;4986572;28;20053;-82
2023/03/06 06:59:51;;;;;;;2.83;2.17;;;1.00;99.90;;;;;;4986584;28;20430;-82
2023/03/06 07:02:16;;;;;;;2.13;1.92;;;1.00;99.90;;;;;;4988479;28;20038;-82
2023/03/06 07:04:43;;;;;;;1.90;1.70;;;1.00;99.90;;;;;;4985918;28;20046;-83
2023/03/06 07:07:08;;;;;;;4.13;2.35;;;1.10;99.90;;;;;;4987471;28;20054;-83
2023/03/06 07:09:34;;;;;;;2.33;2.13;;;1.10;99.90;;;;;;4988776;28;20152;-83
2023/03/06 07:11:59;;;;;;;3.20;2.67;;;1.10;99.90;;;;;;4987658;28;20494;-82
2023/03/06 07:14:26;;;;;;;3.30;2.97;;;1.10;99.90;;;;;;4981830;28;20050;-83
2023/03/06 07:16:51;;;;;;;2.00;1.80;;;1.10;99.90;;;;;;4988246;28;20141;-83
2023/03/06 07:19:17;;;;;;;2.13;1.50;;;1.20;99.90;;;;;;4986572;28;20489;-83
2023/03/06 07:21:42;;;;;;;3.80;2.10;;;1.20;99.90;;;;;;4987161;28;20049;-83
2023/03/06 07:24:08;;;;;;;4.13;2.92;;;1.10;99.90;;;;;;4983989;28;20058;-83
2023/03/06 07:26:34;;;;;;;3.10;2.78;;;1.20;99.90;;;;;;4987861;28;20131;-82
2023/03/06 07:28:59;;;;;;;3.30;2.10;;;1.10;99.90;;;;;;4992295;28;20089;-82
2023/03/06 07:31:26;;;;;;;2.65;2.03;;;1.10;99.90;;;;;;4990305;28;20042;-83
2023/03/06 07:33:53;;;;;;;6.15;4.03;;;1.20;99.90;;;;;;4989498;28;20042;-83
2023/03/06 07:36:20;;;;;;;3.88;2.58;;;1.20;99.90;;;;;;4990133;28;20116;-83
2023/03/06 07:38:46;;;;;;;1.98;1.52;;;1.20;99.90;;;;;;4991484;28;20520;-82
2023/03/06 07:41:13;;;;;;;2.63;2.30;;;1.20;99.90;;;;;;4991053;28;20057;-82
2023/03/06 07:43:43;;;;;;;2.30;1.77;;;1.20;99.90;;;;;;4991015;28;20057;-82
2023/03/06 07:46:10;;;;;;;3.63;2.50;;;1.20;99.90;;;;;;4991871;28;20053;-82
2023/03/06 07:48:36;;;;;;;3.30;2.40;;;1.20;99.90;;;;;;4991499;28;20209;-82
2023/03/06 07:51:05;;;;;;;2.10;1.90;;;1.30;99.90;;;;;;4990085;28;20038;-82
2023/03/06 07:53:32;;;;;;;2.38;1.67;;;1.30;99.90;;;;;;4989462;28;20526;-83
2023/03/06 07:55:58;;;;;;;2.83;1.80;;;1.30;99.90;;;;;;4990544;28;20050;-80
2023/03/06 07:58:24;;;;;;;2.42;1.77;;;1.30;99.90;;;;;;4990398;28;20060;-82
2023/03/06 08:00:50;;;;;;;2.60;1.92;;;1.40;99.90;;;;;;4990924;28;20054;-82
2023/03/06 08:03:16;;;;;;;3.00;2.40;;;1.50;99.90;;;;;;4991330;28;20045;-82
2023/03/06 08:05:43;;;;;;;2.13;1.92;;;1.90;99.90;;;;;;4989261;28;20109;-82
2023/03/06 08:08:10;;;;;;;4.35;1.88;;;1.60;99.90;;;;;;4990841;28;20050;-83
2023/03/06 08:10:36;;;;;;;3.53;1.83;;;2.00;99.90;;;;;;4989242;28;20167;-83
2023/03/06 08:13:02;;;;;;;2.85;1.80;;;1.80;99.90;;;;;;4989867;28;20042;-82
2023/03/06 08:15:28;;;;;;;2.60;1.52;;;1.90;99.90;;;;;;4989077;28;20105;-83
2023/03/06 08:17:53;;;;;;;2.50;1.92;;;2.00;99.90;;;;;;4990875;28;20062;-83
2023/03/06 08:20:19;;;;;;;2.97;2.50;;;2.10;99.90;;;;;;4989682;28;20046;-83
2023/03/06 08:22:45;;;;;;;2.70;2.10;;;2.10;99.90;;;;;;4991040;28;20129;-82
2023/03/06 08:25:12;;;;;;;3.42;2.35;;;2.10;99.90;;;;;;4989408;28;20137;-83
2023/03/06 08:27:38;;;;;;;4.20;2.70;;;2.10;99.90;;;;;;4989448;28;20485;-82
2023/03/06 08:30:08;;;;;;;3.67;2.60;;;2.10;99.90;;;;;;4991561;28;20529;-83
2023/03/06 08:32:35;;;;;;;10.10;6.78;;;2.30;99.90;;;;;;4990192;28;20134;-83
2023/03/06 08:35:03;;;;;;;2.67;2.22;;;2.50;99.90;;;;;;4991823;28;20092;-83
2023/03/06 08:37:28;;;;;;;4.25;2.80;;;2.60;99.90;;;;;;4990079;28;20057;-83
2023/03/06 08:39:54;;;;;;;3.47;2.83;;;2.40;99.90;;;;;;4989725;28;20042;-82
2023/03/06 08:42:19;;;;;;;3.97;2.65;;;2.90;99.90;;;;;;4990878;28;20062;-83
2023/03/06 08:44:45;;;;;;;2.55;2.33;;;3.00;99.90;;;;;;4990396;28;20050;-81
2023/03/06 08:47:11;;;;;;;2.10;1.90;;;3.20;99.90;;;;;;4990561;28;20042;-80
2023/03/06 08:49:38;;;;;;;5.00;3.83;;;3.30;99.90;;;;;;4988498;28;20039;-80
2023/03/06 08:52:05;;;;;;;2.00;1.83;;;3.40;99.90;;;;;;4980997;28;20121;-80
2023/03/06 08:54:33;;;;;;;3.38;2.90;;;3.40;99.90;;;;;;4990141;28;20149;-81
2023/03/06 08:56:59;;;;;;;4.32;3.70;;;3.60;99.90;;;;;;4971950;28;20474;-80
2023/03/06 08:59:27;;;;;;;2.67;2.47;;;3.80;99.90;;;;;;4988757;28;20049;-80
2023/03/06 09:01:53;;;;;;;2.97;1.90;;;3.20;99.90;;;;;;4988472;28;20038;-80
2023/03/06 09:04:18;;;;;;;3.35;1.60;;;3.90;99.90;;;;;;4989144;28;20053;-80
2023/03/06 09:06:44;;;;;;;1.55;1.45;;;3.80;99.90;;;;;;4990198;28;20467;-81
2023/03/06 09:09:11;;;;;;;2.72;1.55;;;4.10;99.90;;;;;;4988862;28;20038;-80
2023/03/06 09:11:37;;;;;;;1.98;1.80;;;4.10;99.90;;;;;;4989051;28;20117;-81
2023/03/06 09:14:03;;;;;;;4.53;2.60;;;4.40;99.90;;;;;;4989844;28;20081;-81
2023/03/06 09:16:30;;;;;;;3.10;1.42;;;4.40;99.90;;;;;;4986465;28;20593;-82
2023/03/06 09:18:56;;;;;;;1.65;1.30;;;4.40;99.90;;;;;;4986302;28;20046;-81
2023/03/06 09:21:22;;;;;;;1.40;1.30;;;4.50;99.90;;;;;;4987977;28;20055;-81
2023/03/06 09:23:48;;;;;;;1.25;1.10;;;4.60;99.90;;;;;;4987506;28;20042;-82
2023/03/06 09:26:14;;;;;;;3.08;1.27;;;4.70;99.90;;;;;;4984895;28;20053;-81
2023/03/06 09:28:40;;;;;;;2.85;1.20;;;4.80;99.90;;;;;;4988332;28;20046;-81
2023/03/06 09:31:10;;;;;;;2.95;1.20;;;4.90;99.90;;;;;;4990866;28;20125;-81
2023/03/06 09:33:36;;;;;;;1.67;1.40;;;4.90;99.90;;;;;;4987939;28;20069;-81
2023/03/06 09:36:03;;;;;;;1.33;1.00;;;5.10;99.90;;;;;;4986705;28;20496;-81
2023/03/06 09:38:28;;;;;;;2.72;1.27;;;5.10;99.90;;;;;;4988381;28;20497;-82
2023/03/06 09:41:03;;;;;;;2.00;1.33;;;5.40;99.90;;;;;;4987148;28;20148;-81
2023/03/06 09:43:42;;;;;;;2.03;1.63;;;5.10;99.90;;;;;;4969642;28;20525;-82
2023/03/06 09:46:29;;;;;;;1.90;0.90;;;5.20;99.90;;;;;;4980280;28;20153;-82
2023/03/06 09:49:09;;;;;;;1.70;1.10;;;5.30;99.90;;;;;;4989245;28;20542;-82
2023/03/06 09:52:03;;;;;;;1.60;0.90;;;5.30;99.90;;;;;;4988297;28;20050;-83
2023/03/06 09:54:44;;;;;;;2.28;1.10;;;5.30;99.90;;;;;;4981004;28;20504;-83
2023/03/06 09:57:26;;;;;;;1.90;0.90;;;5.30;99.90;;;;;;4987345;28;20142;-82
2023/03/06 09:59:56;;;;;;;2.60;1.20;;;5.50;99.90;;;;;;4988711;28;20046;-83
2023/03/06 10:02:35;;;;;;;2.97;1.13;;;5.60;99.90;;;;;;4979540;28;20043;-82
2023/03/06 10:05:05;;;;;;;2.45;1.10;;;5.70;99.90;;;;;;4982130;28;20377;-83
2023/03/06 10:07:49;;;;;;;6.18;0.90;;;5.80;99.90;;;;;;4979158;28;20055;-83
2023/03/06 10:10:25;;;;;;;3.65;0.90;;;5.80;99.90;;;;;;4970586;28;20576;-83
2023/03/06 10:13:04;;;;;;;1.55;0.60;;;5.80;99.90;;;;;;5001573;28;20058;-83
2023/03/06 10:15:34;;;;;;;1.50;0.80;;;5.90;99.90;;;;;;4979712;28;20137;-84
2023/03/06 10:18:02;;;;;;;1.42;0.80;;;6.00;99.90;;;;;;4983790;28;20069;-83
2023/03/06 10:20:39;;;;;;;1.40;0.82;;;5.90;99.90;;;;;;4985666;28;20049;-83
2023/03/06 10:23:27;;;;;;;1.73;0.60;;;5.90;99.90;;;;;;4986669;28;20043;-81
2023/03/06 10:26:00;;;;;;;0.90;0.60;;;5.90;99.90;;;;;;4986137;28;20101;-82
2023/03/06 10:28:38;;;;;;;2.47;0.73;;;5.90;99.90;;;;;;4989129;28;20042;-82
2023/03/06 10:31:12;;;;;;;0.95;0.60;;;6.00;99.90;;;;;;4988955;28;20042;-82
2023/03/06 10:33:38;;;;;;;3.55;0.50;;;6.10;99.90;;;;;;4987719;28;20054;-82
2023/03/06 10:36:04;;;;;;;1.95;0.70;;;6.10;99.90;;;;;;4987111;28;20045;-82
2023/03/06 10:38:29;;;;;;;3.03;1.10;;;6.30;99.90;;;;;;4986852;28;20424;-82
2023/03/06 10:41:10;;;;;;;1.63;0.60;;;6.50;99.90;;;;;;4956546;28;20055;-82
2023/03/06 10:43:43;;;;;;;1.73;0.88;;;6.60;99.90;;;;;;4977446;28;20104;-82
2023/03/06 10:46:11;;;;;;;1.73;0.63;;;6.70;99.90;;;;;;4979365;28;20146;-82
2023/03/06 10:48:38;;;;;;;2.47;1.23;;;6.60;99.90;;;;;;4969706;28;20043;-82
2023/03/06 10:51:20;;;;;;;1.52;1.00;;;6.40;99.90;;;;;;4972049;28;20066;-82
2023/03/06 10:53:57;;;;;;;2.08;0.50;;;6.30;99.90;;;;;;4987048;28;20085;-81
2023/03/06 10:56:31;;;;;;;1.08;0.60;;;6.40;99.90;;;;;;4985244;28;20046;-81
2023/03/06 10:59:27;;;;;;;2.38;0.98;;;6.40;99.90;;;;;;4987380;28;20493;-83
2023/03/06 11:02:24;;;;;;;1.83;0.80;;;6.50;99.90;;;;;;4988820;28;20097;-82
2023/03/06 11:04:54;;;;;;;2.70;0.60;;;6.70;99.90;;;;;;4969713;28;20528;-82
2023/03/06 11:07:30;;;;;;;2.65;0.85;;;6.80;99.90;;;;;;4983983;28;20097;-82
2023/03/06 11:09:56;;;;;;;3.30;0.63;;;6.90;99.90;;;;;;4984619;28;20121;-81
2023/03/06 11:12:21;;;;;;;3.10;0.60;;;7.00;99.90;;;;;;4986688;28;20133;-81
2023/03/06 11:15:06;;;;;;;1.02;0.70;;;7.10;99.90;;;;;;4970399;28;20054;-81
2023/03/06 11:17:34;;;;;;;1.20;0.85;;;7.10;99.90;;;;;;4986163;28;20512;-82
2023/03/06 11:20:18;;;;;;;3.03;0.90;;;7.00;99.90;;;;;;4970625;28;20064;-81
2023/03/06 11:23:06;;;;;;;0.98;0.65;;;6.70;99.90;;;;;;4968756;28;20051;-82
2023/03/06 11:25:37;;;;;;;1.75;0.75;;;6.60;99.90;;;;;;4983409;28;20132;-81
2023/03/06 11:28:11;;;;;;;4.25;1.40;;;6.50;99.90;;;;;;4987688;28;20485;-81
2023/03/06 11:30:43;;;;;;;1.88;0.98;;;6.50;99.90;;;;;;4983622;28;20103;-81
2023/03/06 11:33:26;;;;;;;3.63;0.80;;;6.60;99.90;;;;;;4987177;28;20130;-81
2023/03/06 11:36:10;;;;;;;2.75;1.10;;;6.80;99.90;;;;;;4986385;28;20049;-81
2023/03/06 11:38:48;;;;;;;1.67;0.73;;;7.00;99.90;;;;;;4986728;28;20054;-81
2023/03/06 11:41:38;;;;;;;1.25;0.70;;;7.10;99.90;;;;;;4982564;28;20043;-81
2023/03/06 11:44:28;;;;;;;4.20;0.80;;;7.10;99.90;;;;;;4962243;28;20093;-82
2023/03/06 11:47:14;;;;;;;3.70;0.80;;;7.10;99.90;;;;;;4979936;28;20389;-81
2023/03/06 11:49:59;;;;;;;2.13;0.98;;;7.00;99.90;;;;;;4977715;28;20156;-81
2023/03/06 11:52:46;;;;;;;2.05;0.80;;;6.90;99.90;;;;;;4986409;28;20049;-80
2023/03/06 11:55:17;;;;;;;2.42;0.85;;;6.90;99.90;;;;;;4984661;28;20049;-82
2023/03/06 11:58:01;;;;;;;1.67;1.00;;;7.50;99.90;;;;;;4984132;28;20054;-81
2023/03/06 12:00:42;;;;;;;3.90;0.68;;;7.00;99.90;;;;;;4984767;28;20042;-81
2023/03/06 12:03:11;;;;;;;2.40;0.57;;;7.00;99.90;;;;;;4985668;28;20367;-80
2023/03/06 12:05:49;;;;;;;2.38;0.82;;;7.00;99.90;;;;;;4985609;28;20472;-80
2023/03/06 12:08:55;;;;;;;1.52;0.63;;;6.90;99.90;;;;;;4984182;28;20082;-80
2023/03/06 12:12:01;;;;;;;2.05;0.73;;;6.80;99.90;;;;;;4981374;28;20565;-81
2023/03/06 12:15:00;;;;;;;2.47;0.95;;;6.70;99.90;;;;;;4989878;28;20378;-81
2023/03/06 12:17:41;;;;;;;1.60;0.60;;;6.70;99.90;;;;;;4987875;28;20050;-80
2023/03/06 12:20:18;;;;;;;0.98;0.60;;;6.80;99.90;;;;;;4987716;28;20053;-80
2023/03/06 12:22:44;;;;;;;1.55;1.13;;;6.80;99.90;;;;;;4987579;28;20049;-81
2023/03/06 12:25:41;;;;;;;3.55;1.20;;;6.80;99.90;;;;;;4987029;28;20493;-79
2023/03/06 12:28:29;;;;;;;2.20;1.20;;;6.90;99.90;;;;;;4987049;28;20046;-79
2023/03/06 12:31:18;;;;;;;3.22;1.73;;;7.50;99.90;;;;;;4988467;28;20046;-78
2023/03/06 12:34:21;;;;;;;2.60;0.70;;;6.80;99.90;;;;;;4973482;28;20050;-80
2023/03/06 12:37:09;;;;;;;2.22;0.70;;;6.60;99.90;;;;;;4944864;28;1070911;-80
2023/03/06 12:40:08;;;;;;;0.80;0.70;;;6.50;99.90;;;;;;4989335;28;20062;-80
2023/03/06 12:43:11;;;;;;;2.85;1.23;;;6.50;99.90;;;;;;4988558;28;20058;-82
2023/03/06 12:45:37;;;;;;;1.25;1.13;;;6.50;99.90;;;;;;4987922;28;20133;-80
2023/03/06 12:48:13;;;;;;;1.58;1.13;;;6.50;99.90;;;;;;4988786;28;20245;-81
2023/03/06 12:50:43;;;;;;;2.03;1.00;;;6.60;99.90;;;;;;4989903;28;20039;-79
2023/03/06 12:53:31;;;;;;;1.95;1.20;;;6.70;99.90;;;;;;4988047;28;20104;-81
2023/03/06 12:56:00;;;;;;;1.20;0.70;;;6.90;99.90;;;;;;4983300;28;20049;-80
2023/03/06 12:58:28;;;;;;;0.93;0.70;;;7.00;99.90;;;;;;4989600;28;20088;-80
2023/03/06 13:01:06;;;;;;;1.67;0.95;;;7.20;99.90;;;;;;4988402;28;20054;-80
2023/03/06 13:03:59;;;;;;;1.70;1.00;;;7.20;99.90;;;;;;4987412;28;20372;-80
2023/03/06 13:06:29;;;;;;;1.48;1.10;;;7.30;99.90;;;;;;4984408;28;20125;-80
2023/03/06 13:09:12;;;;;;;1.25;0.90;;;7.30;99.90;;;;;;4988630;28;20180;-80
2023/03/06 13:12:17;;;;;;;4.15;0.93;;;7.30;99.90;;;;;;4987400;28;20517;-81
2023/03/06 13:14:43;;;;;;;3.65;2.08;;;7.30;99.90;;;;;;4971979;28;20532;-82